Time;durP1;ratioP1;P1;durP2;ratioP2;P2;SDS_P1;SDS_P2;PMS_P1;PMS_P2;Temp;Humidity;BMP_temperature;BMP_pressure;BME280_temperature;BME280_humidity;BME280_pressure;Samples;Min_cycle;Max_cycle;Signal;HPM_P1;HPM_P2
2022/10/02 00:00:15;;;;;;;9.85;4.30;;;;;;;9.11;100.00;100698.28;678009;29;1700;-67
2022/10/02 00:00:39;;;;;;;10.20;4.20;;;;;;;9.08;100.00;100706.97;689900;28;1295;-66
2022/10/02 00:01:11;;;;;;;8.82;3.95;;;;;;;9.05;100.00;100704.34;688484;28;4639;-66
2022/10/02 00:01:46;;;;;;;9.18;4.47;;;;;;;9.02;100.00;100706.97;689137;28;2648;-66
2022/10/02 00:02:24;;;;;;;10.15;4.68;;;;;;;9.13;100.00;100700.03;689309;28;2748;-66
2022/10/02 00:03:07;;;;;;;7.55;3.90;;;;;;;9.10;100.00;100701.78;689819;28;1376;-66
2022/10/02 00:03:31;;;;;;;9.48;4.05;;;;;;;9.05;100.00;100700.88;689450;28;2689;-66
2022/10/02 00:03:52;;;;;;;10.20;3.83;;;;;;;9.05;100.00;100698.28;689297;28;4541;-67
2022/10/02 00:04:20;;;;;;;9.50;4.55;;;;;;;9.02;100.00;100699.13;689219;28;1348;-66
2022/10/02 00:04:51;;;;;;;9.18;4.10;;;;;;;9.03;100.00;100695.69;689415;28;1156;-66
2022/10/02 00:05:21;;;;;;;8.55;4.18;;;;;;;9.10;100.00;100699.16;688271;28;1386;-66
2022/10/02 00:05:46;;;;;;;8.38;3.92;;;;;;;9.11;100.00;100704.38;690219;28;1306;-67
2022/10/02 00:06:22;;;;;;;9.57;4.30;;;;;;;9.08;100.00;100699.13;688779;28;1508;-66
2022/10/02 00:06:46;;;;;;;11.25;4.40;;;;;;;9.00;100.00;100691.31;688386;28;4481;-66
2022/10/02 00:07:09;;;;;;;9.77;4.35;;;;;;;9.10;100.00;100697.41;688146;28;1288;-65
2022/10/02 00:07:43;;;;;;;9.43;3.92;;;;;;;9.16;100.00;100702.63;687852;28;1021;-66
2022/10/02 00:08:11;;;;;;;9.15;4.00;;;;;;;9.10;100.00;100702.63;687503;28;1265;-65
2022/10/02 00:08:36;;;;;;;9.63;4.10;;;;;;;9.09;100.00;100700.88;687592;28;1235;-67
2022/10/02 00:09:02;;;;;;;9.95;3.90;;;;;;;9.12;100.00;100700.88;688508;28;1350;-66
2022/10/02 00:09:31;;;;;;;9.70;4.03;;;;;;;9.10;100.00;100700.03;688741;28;1325;-66
2022/10/02 00:09:57;;;;;;;9.40;4.05;;;;;;;9.12;100.00;100694.81;688841;28;4389;-66
2022/10/02 00:10:28;;;;;;;8.35;3.97;;;;;;;9.17;100.00;100699.16;689689;28;1194;-66
2022/10/02 00:10:56;;;;;;;9.32;3.80;;;;;;;9.20;100.00;100703.53;689026;28;1147;-67
2022/10/02 00:11:21;;;;;;;9.30;3.95;;;;;;;9.15;100.00;100700.03;688795;28;1326;-66
2022/10/02 00:11:47;;;;;;;10.65;3.95;;;;;;;9.13;100.00;100696.56;689880;28;1306;-67
2022/10/02 00:12:13;;;;;;;10.65;4.22;;;;;;;9.12;100.00;100694.81;689184;28;1386;-67
2022/10/02 00:12:35;;;;;;;8.85;4.05;;;;;;;9.14;100.00;100704.38;688829;28;1040;-67
2022/10/02 00:13:00;;;;;;;10.93;4.28;;;;;;;9.14;100.00;100700.91;689067;28;4906;-66
2022/10/02 00:13:30;;;;;;;10.30;4.10;;;;;;;9.10;100.00;100699.16;688851;28;1086;-66
2022/10/02 00:13:57;;;;;;;8.35;3.90;;;;;;;9.10;100.00;100696.56;689777;28;1151;-66
2022/10/02 00:14:22;;;;;;;9.95;4.10;;;;;;;9.06;100.00;100702.63;688756;28;2704;-66
2022/10/02 00:14:45;;;;;;;7.63;4.13;;;;;;;9.12;100.00;100702.63;689450;28;1211;-67
2022/10/02 00:15:14;;;;;;;8.38;3.83;;;;;;;9.05;100.00;100706.97;690198;28;1218;-67
2022/10/02 00:15:39;;;;;;;9.65;4.50;;;;;;;9.07;100.00;100701.75;689566;28;1287;-66
2022/10/02 00:16:03;;;;;;;8.80;3.92;;;;;;;9.08;100.00;100704.34;692230;28;4650;-66
2022/10/02 00:16:37;;;;;;;9.57;4.00;;;;;;;9.09;100.00;100708.72;689131;28;3421;-66
2022/10/02 00:17:00;;;;;;;9.48;3.50;;;;;;;9.08;100.00;100712.19;689216;28;1570;-66
2022/10/02 00:17:26;;;;;;;9.85;3.70;;;;;;;9.08;100.00;100698.28;688989;28;1380;-66
2022/10/02 00:17:51;;;;;;;8.50;3.90;;;;;;;9.07;100.00;100705.25;688854;28;2753;-66
2022/10/02 00:18:19;;;;;;;10.35;4.82;;;;;;;9.06;100.00;100706.09;690257;28;1053;-66
2022/10/02 00:18:40;;;;;;;8.75;3.90;;;;;;;9.09;100.00;100702.63;691614;28;4412;-67
2022/10/02 00:19:01;;;;;;;8.80;3.88;;;;;;;9.14;100.00;100704.38;688746;28;1219;-66
2022/10/02 00:19:21;;;;;;;8.10;3.60;;;;;;;9.20;100.00;100704.38;688707;28;1099;-66
2022/10/02 00:19:42;;;;;;;8.83;3.40;;;;;;;9.27;100.00;100704.41;688849;28;1405;-66
2022/10/02 00:20:10;;;;;;;8.18;3.78;;;;;;;9.27;100.00;100707.88;687588;28;1422;-66
2022/10/02 00:20:53;;;;;;;7.63;3.70;;;;;;;9.16;100.00;100699.16;686227;28;2688;-66
2022/10/02 00:21:42;;;;;;;9.45;3.97;;;;;;;9.09;100.00;100705.25;686658;28;1233;-66
2022/10/02 00:22:29;;;;;;;8.40;3.80;;;;;;;9.06;100.00;100700.03;680816;29;4840;-66
2022/10/02 00:22:54;;;;;;;9.40;4.20;;;;;;;9.05;100.00;100704.34;687027;28;1116;-66
2022/10/02 00:23:24;;;;;;;8.65;4.13;;;;;;;9.01;100.00;100702.59;691052;28;1305;-66
2022/10/02 00:23:50;;;;;;;10.55;4.30;;;;;;;8.99;100.00;100694.78;691819;28;1333;-66
2022/10/02 00:24:16;;;;;;;10.13;4.10;;;;;;;8.97;100.00;100700.84;691232;28;1115;-66
2022/10/02 00:24:50;;;;;;;8.70;4.05;;;;;;;8.99;100.00;100704.34;689541;28;2663;-66
2022/10/02 00:25:25;;;;;;;7.95;3.75;;;;;;;9.01;100.00;100702.59;688652;28;4885;-66
2022/10/02 00:25:53;;;;;;;8.45;3.97;;;;;;;9.03;100.00;100703.50;688144;28;1394;-67
2022/10/02 00:26:30;;;;;;;8.55;3.95;;;;;;;9.07;100.00;100705.25;687739;28;1274;-66
2022/10/02 00:27:21;;;;;;;9.38;3.78;;;;;;;9.06;100.00;100706.09;689795;28;1447;-66
2022/10/02 00:28:03;;;;;;;9.02;3.90;;;;;;;9.06;100.00;100711.31;689663;28;4579;-66
2022/10/02 00:28:58;;;;;;;10.30;4.50;;;;;;;9.06;100.00;100703.50;689422;28;1213;-66
2022/10/02 00:29:24;;;;;;;9.88;4.00;;;;;;;9.07;100.00;100707.84;688605;28;1100;-66
2022/10/02 00:29:49;;;;;;;7.88;3.67;;;;;;;9.09;100.00;100700.03;687896;28;1428;-66
2022/10/02 00:30:13;;;;;;;9.05;3.90;;;;;;;9.07;100.00;100706.97;688579;28;1195;-66
2022/10/02 00:30:59;;;;;;;9.63;3.95;;;;;;;8.98;100.00;100706.06;688265;28;1253;-66
2022/10/02 00:31:37;;;;;;;9.50;4.20;;;;;;;8.99;100.00;100699.13;688582;28;4706;-67
2022/10/02 00:32:00;;;;;;;9.30;4.13;;;;;;;9.02;100.00;100700.00;688705;28;1282;-66
2022/10/02 00:32:29;;;;;;;8.48;4.10;;;;;;;9.09;100.00;100703.50;689824;28;1169;-65
2022/10/02 00:33:00;;;;;;;9.20;3.65;;;;;;;9.06;100.00;100698.28;689839;28;1296;-67
2022/10/02 00:33:45;;;;;;;9.25;3.80;;;;;;;9.00;100.00;100699.13;690038;28;1182;-66
2022/10/02 00:34:33;;;;;;;9.88;4.30;;;;;;;9.00;100.00;100700.88;688561;28;6280;-66
2022/10/02 00:35:24;;;;;;;8.00;3.50;;;;;;;9.13;100.00;100702.63;690019;28;1119;-66
2022/10/02 00:35:57;;;;;;;8.95;3.83;;;;;;;9.05;100.00;100703.50;689692;28;1216;-66
2022/10/02 00:36:48;;;;;;;10.15;3.70;;;;;;;9.03;100.00;100700.88;689072;28;1182;-66
2022/10/02 00:37:27;;;;;;;9.10;3.60;;;;;;;9.18;100.00;100710.47;689237;28;4968;-66
2022/10/02 00:38:00;;;;;;;9.85;4.00;;;;;;;9.24;100.00;100709.63;689602;28;2848;-65
2022/10/02 00:38:29;;;;;;;9.07;3.63;;;;;;;9.15;100.00;100713.97;689158;28;1065;-67
2022/10/02 00:39:14;;;;;;;8.48;3.40;;;;;;;9.12;100.00;100708.72;689653;28;4937;-66
2022/10/02 00:39:41;;;;;;;7.80;3.53;;;;;;;9.11;100.00;100714.81;689358;28;1179;-66
2022/10/02 00:40:39;;;;;;;11.10;4.00;;;;;;;9.07;100.00;100710.47;691688;28;4870;-67
2022/10/02 00:41:39;;;;;;;11.30;3.85;;;;;;;9.09;100.00;100711.31;689571;28;1223;-65
2022/10/02 00:42:29;;;;;;;9.05;3.78;;;;;;;9.12;100.00;100711.31;689392;28;1209;-66
2022/10/02 00:42:56;;;;;;;8.68;3.47;;;;;;;9.19;100.00;100707.88;688309;28;4804;-67
2022/10/02 00:43:42;;;;;;;9.15;4.00;;;;;;;9.17;100.00;100714.81;688423;28;1294;-66
2022/10/02 00:44:39;;;;;;;10.77;4.10;;;;;;;9.16;100.00;100720.88;688455;28;1293;-66
2022/10/02 00:45:30;;;;;;;9.68;3.80;;;;;;;9.15;100.00;100718.28;689880;28;1211;-65
2022/10/02 00:46:28;;;;;;;11.20;3.80;;;;;;;9.16;100.00;100722.63;689002;28;4556;-67
2022/10/02 00:46:57;;;;;;;9.35;3.92;;;;;;;9.24;100.00;100725.28;688394;28;1159;-66
2022/10/02 00:47:29;;;;;;;9.73;3.92;;;;;;;9.19;100.00;100720.91;688897;28;1028;-66
2022/10/02 00:47:52;;;;;;;10.82;3.83;;;;;;;9.18;100.00;100721.78;688307;28;1096;-67
2022/10/02 00:48:46;;;;;;;8.93;3.90;;;;;;;9.19;100.00;100720.03;688602;28;955;-66
2022/10/02 00:49:40;;;;;;;8.93;3.78;;;;;;;9.26;100.00;100728.75;688542;28;5032;-66
2022/10/02 00:50:27;;;;;;;9.10;3.80;;;;;;;9.22;100.00;100727.00;688207;28;1346;-66
2022/10/02 00:50:50;;;;;;;8.38;3.50;;;;;;;9.26;100.00;100728.75;688293;28;1390;-66
2022/10/02 00:51:29;;;;;;;9.50;3.45;;;;;;;9.26;100.00;100728.75;688303;28;1127;-66
2022/10/02 00:52:04;;;;;;;8.30;3.58;;;;;;;9.25;100.00;100722.66;688738;28;4665;-66
2022/10/02 00:52:51;;;;;;;7.90;3.83;;;;;;;9.35;100.00;100726.16;689315;28;1128;-66
2022/10/02 00:53:52;;;;;;;11.02;3.70;;;;;;;9.32;100.00;100723.53;688708;28;1242;-66
2022/10/02 00:54:43;;;;;;;9.23;3.22;;;;;;;9.34;100.00;100717.44;688640;28;1237;-66
2022/10/02 00:55:38;;;;;;;9.05;3.50;;;;;;;9.31;100.00;100724.41;688379;28;4730;-66
2022/10/02 00:56:26;;;;;;;9.02;4.00;;;;;;;9.32;100.00;100720.94;688301;28;1230;-65
2022/10/02 00:56:53;;;;;;;9.30;3.38;;;;;;;9.38;100.00;100724.41;688716;28;1044;-66
2022/10/02 00:57:32;;;;;;;10.35;3.35;;;;;;;9.40;100.00;100721.81;687716;28;1267;-66
2022/10/02 00:58:06;;;;;;;9.73;3.75;;;;;;;9.41;100.00;100725.28;688806;28;4535;-66
2022/10/02 00:58:52;;;;;;;9.93;3.45;;;;;;;9.41;100.00;100723.53;689076;28;1361;-65
2022/10/02 00:59:15;;;;;;;7.93;3.20;;;;;;;9.40;100.00;100720.94;688667;28;1040;-66
2022/10/02 00:59:43;;;;;;;7.70;3.45;;;;;;;9.38;100.00;100721.78;689490;28;1230;-66
2022/10/02 01:00:10;;;;;;;8.77;3.33;;;;;;;9.43;100.00;100729.66;688935;28;1258;-66
2022/10/02 01:00:30;;;;;;;9.30;3.17;;;;;;;9.46;100.00;100721.81;689043;28;1182;-66
2022/10/02 01:01:02;;;;;;;8.95;3.30;;;;;;;9.45;100.00;100725.28;689558;28;4370;-66
2022/10/02 01:01:30;;;;;;;10.30;3.78;;;;;;;9.45;100.00;100721.81;688489;28;2582;-66
2022/10/02 01:01:53;;;;;;;10.07;3.95;;;;;;;9.46;100.00;100721.81;689392;28;1139;-66
2022/10/02 01:02:52;;;;;;;8.70;3.38;;;;;;;9.44;100.00;100723.56;688809;28;1247;-67
2022/10/02 01:03:37;;;;;;;9.73;3.78;;;;;;;9.43;100.00;100724.44;688565;28;1184;-66
2022/10/02 01:04:03;;;;;;;10.98;3.45;;;;;;;9.44;100.00;100725.28;689177;28;4352;-66
2022/10/02 01:04:33;;;;;;;8.60;3.13;;;;;;;9.48;100.00;100725.28;689493;28;1087;-66
2022/10/02 01:04:53;;;;;;;7.75;3.42;;;;;;;9.51;100.00;100727.91;688574;28;1174;-66
2022/10/02 01:05:14;;;;;;;8.77;3.40;;;;;;;9.50;100.00;100730.53;688942;28;1251;-66
2022/10/02 01:05:34;;;;;;;12.30;3.90;;;;;;;9.48;100.00;100724.41;689379;28;1140;-66
2022/10/02 01:05:55;;;;;;;9.50;3.40;;;;;;;9.48;100.00;100724.41;689094;28;1131;-66
2022/10/02 01:06:15;;;;;;;9.07;3.40;;;;;;;9.49;100.00;100721.81;689265;28;1139;-67
2022/10/02 01:06:36;;;;;;;11.15;3.65;;;;;;;9.49;100.00;100719.19;688580;28;2709;-66
2022/10/02 01:06:56;;;;;;;10.50;3.50;;;;;;;9.49;100.00;100726.16;688635;28;4433;-66
2022/10/02 01:07:17;;;;;;;8.75;3.35;;;;;;;9.48;100.00;100725.28;688919;28;1251;-66
2022/10/02 01:07:41;;;;;;;10.52;3.92;;;;;;;9.47;100.00;100726.16;689754;28;1385;-66
2022/10/02 01:08:02;;;;;;;12.23;3.88;;;;;;;9.47;100.00;100723.56;689695;28;1308;-66
2022/10/02 01:08:23;;;;;;;10.82;3.70;;;;;;;9.47;100.00;100722.66;689680;28;1115;-66
2022/10/02 01:08:43;;;;;;;11.80;3.80;;;;;;;9.47;100.00;100723.56;690113;28;1388;-65
2022/10/02 01:09:04;;;;;;;12.15;3.65;;;;;;;9.48;100.00;100721.81;690215;28;1243;-66
2022/10/02 01:09:25;;;;;;;11.88;3.72;;;;;;;9.49;100.00;100721.81;689181;28;1340;-66
2022/10/02 01:09:45;;;;;;;10.40;3.80;;;;;;;9.50;100.00;100722.69;687988;28;4374;-67
2022/10/02 01:10:07;;;;;;;9.10;3.38;;;;;;;9.49;100.00;100719.19;688198;28;1437;-66
2022/10/02 01:10:29;;;;;;;8.65;3.58;;;;;;;9.47;100.00;100723.56;689752;28;1418;-66
2022/10/02 01:10:49;;;;;;;9.13;3.60;;;;;;;9.45;100.00;100727.03;689874;28;1212;-65
2022/10/02 01:11:10;;;;;;;9.50;3.50;;;;;;;9.46;100.00;100724.41;689948;28;1140;-66
2022/10/02 01:11:30;;;;;;;8.27;3.30;;;;;;;9.50;100.00;100726.16;689580;28;1171;-66
2022/10/02 01:11:51;;;;;;;9.27;3.50;;;;;;;9.54;100.00;100720.06;689716;28;1215;-66
2022/10/02 01:12:13;;;;;;;8.57;3.43;;;;;;;9.56;100.00;100721.81;689905;28;1196;-66
2022/10/02 01:12:34;;;;;;;10.85;3.50;;;;;;;9.56;100.00;100717.47;689146;28;3779;-66
2022/10/02 01:12:56;;;;;;;11.47;3.63;;;;;;;9.53;100.00;100718.31;689216;28;4469;-67
2022/10/02 01:13:17;;;;;;;8.82;3.50;;;;;;;9.52;100.00;100726.16;686744;28;1280;-66
2022/10/02 01:13:37;;;;;;;10.40;3.80;;;;;;;9.52;100.00;100727.03;684492;28;1536;-65
2022/10/02 01:13:58;;;;;;;8.80;3.75;;;;;;;9.51;100.00;100730.53;684395;28;1207;-66
2022/10/02 01:14:18;;;;;;;9.57;3.60;;;;;;;9.50;100.00;100723.56;684464;28;1077;-66
2022/10/02 01:14:39;;;;;;;11.47;4.00;;;;;;;9.49;100.00;100721.81;684651;28;1272;-66
2022/10/02 01:15:00;;;;;;;12.05;3.78;;;;;;;9.49;100.00;100732.25;684496;28;2693;-66
2022/10/02 01:15:28;;;;;;;10.90;3.90;;;;;;;9.49;100.00;100729.63;686359;28;1049;-66
2022/10/02 01:15:55;;;;;;;12.25;4.00;;;;;;;9.47;100.00;100726.16;687627;28;4826;-65
2022/10/02 01:16:16;;;;;;;10.68;3.65;;;;;;;9.46;100.00;100727.03;689474;28;1183;-66
2022/10/02 01:16:40;;;;;;;10.50;3.90;;;;;;;9.46;100.00;100734.00;687517;28;1239;-67
2022/10/02 01:17:02;;;;;;;9.02;3.72;;;;;;;9.44;100.00;100728.78;689134;28;1274;-66
2022/10/02 01:17:35;;;;;;;8.05;3.65;;;;;;;9.49;100.00;100727.03;688918;28;1083;-67
2022/10/02 01:17:56;;;;;;;9.48;3.25;;;;;;;9.52;100.00;100732.25;688754;28;2795;-66
2022/10/02 01:18:16;;;;;;;7.93;3.53;;;;;;;9.54;100.00;100733.13;689876;28;1254;-66
2022/10/02 01:18:37;;;;;;;9.47;3.60;;;;;;;9.57;100.00;100734.88;688597;28;1969;-66
2022/10/02 01:18:58;;;;;;;11.85;3.63;;;;;;;9.60;100.00;100729.66;690207;28;4516;-65
2022/10/02 01:19:32;;;;;;;9.50;3.30;;;;;;;9.61;100.00;100730.50;691461;28;1254;-66
2022/10/02 01:19:54;;;;;;;9.65;3.47;;;;;;;9.59;100.00;100729.66;691259;28;1422;-66
2022/10/02 01:20:20;;;;;;;11.13;3.80;;;;;;;9.58;100.00;100728.78;692328;28;1123;-66
2022/10/02 01:20:44;;;;;;;11.07;3.58;;;;;;;9.58;100.00;100728.78;692056;28;1250;-66
2022/10/02 01:21:13;;;;;;;10.95;3.70;;;;;;;9.57;100.00;100727.03;692802;28;1369;-66
2022/10/02 01:21:43;;;;;;;12.00;3.95;;;;;;;9.58;100.00;100730.50;690101;28;1265;-66
2022/10/02 01:22:20;;;;;;;11.25;3.78;;;;;;;9.60;100.00;100724.44;686413;28;6266;-66
2022/10/02 01:22:52;;;;;;;9.43;3.80;;;;;;;9.58;100.00;100725.28;686516;28;1255;-66
2022/10/02 01:23:15;;;;;;;12.38;3.72;;;;;;;9.57;100.00;100723.53;686323;28;1140;-66
2022/10/02 01:23:58;;;;;;;11.07;3.55;;;;;;;9.54;100.00;100730.53;689789;28;1211;-66
2022/10/02 01:24:29;;;;;;;8.88;3.47;;;;;;;9.56;100.00;100732.25;689167;28;1100;-66
2022/10/02 01:24:51;;;;;;;9.98;3.30;;;;;;;9.54;100.00;100725.28;686746;28;4624;-66
2022/10/02 01:25:12;;;;;;;11.18;3.42;;;;;;;9.56;100.00;100727.91;686678;28;1116;-65
2022/10/02 01:25:32;;;;;;;10.43;3.50;;;;;;;9.57;100.00;100723.53;687288;28;1164;-66
2022/10/02 01:25:53;;;;;;;10.45;3.63;;;;;;;9.60;100.00;100724.44;687148;28;1234;-66
2022/10/02 01:26:13;;;;;;;10.77;3.40;;;;;;;9.63;100.00;100724.41;685849;28;1105;-66
2022/10/02 01:26:34;;;;;;;8.47;3.57;;;;;;;9.65;100.00;100727.03;687010;28;1108;-66
2022/10/02 01:26:54;;;;;;;12.23;3.77;;;;;;;9.66;100.00;100721.84;688015;28;1446;-66
2022/10/02 01:27:15;;;;;;;11.85;3.67;;;;;;;9.65;100.00;100721.81;688326;28;2658;-65
2022/10/02 01:27:36;;;;;;;11.57;3.63;;;;;;;9.64;100.00;100720.09;689864;28;1251;-66
2022/10/02 01:27:56;;;;;;;10.63;3.70;;;;;;;9.64;100.00;100731.38;685071;28;4369;-65
2022/10/02 01:28:17;;;;;;;13.05;4.15;;;;;;;9.64;100.00;100720.94;685371;28;1267;-66
2022/10/02 01:28:37;;;;;;;12.37;3.83;;;;;;;9.63;100.00;100719.19;685705;28;1175;-66
2022/10/02 01:28:58;;;;;;;12.00;3.70;;;;;;;9.63;100.00;100728.78;686894;28;1278;-65
2022/10/02 01:29:18;;;;;;;12.48;3.88;;;;;;;9.63;100.00;100723.56;685529;28;1097;-65
2022/10/02 01:29:40;;;;;;;10.20;3.63;;;;;;;9.64;100.00;100722.69;685958;28;1239;-66
2022/10/02 01:30:06;;;;;;;10.95;3.42;;;;;;;9.67;100.00;100730.53;686916;28;1427;-65
2022/10/02 01:30:28;;;;;;;10.05;3.67;;;;;;;9.67;100.00;100725.31;686059;28;2699;-65
2022/10/02 01:30:54;;;;;;;10.80;3.88;;;;;;;9.67;100.00;100725.31;687865;28;4400;-66
2022/10/02 01:31:16;;;;;;;9.07;3.40;;;;;;;9.66;100.00;100729.66;689033;28;1227;-67
2022/10/02 01:31:37;;;;;;;10.77;3.60;;;;;;;9.69;100.00;100726.16;687256;28;1129;-66
2022/10/02 01:31:57;;;;;;;10.57;3.63;;;;;;;9.69;100.00;100727.03;689239;28;1444;-66
2022/10/02 01:32:18;;;;;;;10.00;3.83;;;;;;;9.68;100.00;100722.69;689297;28;1081;-66
2022/10/02 01:32:46;;;;;;;13.05;4.20;;;;;;;9.68;100.00;100727.91;688763;28;1239;-66
2022/10/02 01:33:08;;;;;;;11.50;3.88;;;;;;;9.66;100.00;100726.16;689218;28;1406;-66
2022/10/02 01:33:30;;;;;;;8.55;3.78;;;;;;;9.67;100.00;100730.53;689224;28;1257;-66
2022/10/02 01:33:51;;;;;;;8.25;3.53;;;;;;;9.66;100.00;100723.56;689320;28;4420;-66
2022/10/02 01:34:11;;;;;;;9.15;3.40;;;;;;;9.65;100.00;100734.84;689614;28;2858;-66
2022/10/02 01:34:32;;;;;;;8.37;3.30;;;;;;;9.67;100.00;100733.13;689665;28;1210;-66
2022/10/02 01:34:53;;;;;;;10.38;3.58;;;;;;;9.68;100.00;100730.53;688440;28;1100;-65
2022/10/02 01:35:14;;;;;;;10.32;3.80;;;;;;;9.72;100.00;100734.00;689351;28;1187;-66
2022/10/02 01:35:37;;;;;;;11.10;3.75;;;;;;;9.74;100.00;100734.88;688181;28;1234;-66
2022/10/02 01:35:58;;;;;;;8.50;3.17;;;;;;;9.75;100.00;100730.50;688726;28;1278;-66
2022/10/02 01:36:20;;;;;;;9.25;3.50;;;;;;;9.75;100.00;100731.41;688086;28;1048;-66
2022/10/02 01:36:40;;;;;;;11.45;3.53;;;;;;;9.77;100.00;100734.00;686372;28;4380;-65
2022/10/02 01:37:01;;;;;;;11.87;3.60;;;;;;;9.77;100.00;100731.38;689368;28;1095;-66
2022/10/02 01:37:28;;;;;;;11.18;3.65;;;;;;;9.75;100.00;100728.78;689272;28;1059;-66
2022/10/02 01:37:50;;;;;;;11.43;3.65;;;;;;;9.73;100.00;100725.28;689221;28;1452;-66
2022/10/02 01:38:15;;;;;;;10.50;3.60;;;;;;;9.72;100.00;100723.56;688114;28;1179;-65
2022/10/02 01:38:38;;;;;;;12.52;4.20;;;;;;;9.74;100.00;100724.41;688878;28;2000;-66
2022/10/02 01:39:00;;;;;;;12.73;3.58;;;;;;;9.75;100.00;100725.28;689183;28;5172;-66
2022/10/02 01:39:21;;;;;;;10.52;3.13;;;;;;;9.76;100.00;100722.69;688598;28;1623;-66
2022/10/02 01:39:42;;;;;;;12.30;3.53;;;;;;;9.77;100.00;100726.16;689538;28;4343;-66
2022/10/02 01:40:08;;;;;;;11.10;3.58;;;;;;;9.74;100.00;100727.03;689110;28;1220;-64
2022/10/02 01:40:31;;;;;;;9.48;3.60;;;;;;;9.74;100.00;100731.41;689435;28;2598;-65
2022/10/02 01:40:52;;;;;;;9.02;3.55;;;;;;;9.73;100.00;100729.66;688697;28;1105;-66
2022/10/02 01:41:12;;;;;;;9.87;3.57;;;;;;;9.72;100.00;100728.78;689078;28;1155;-66
2022/10/02 01:41:39;;;;;;;11.30;3.60;;;;;;;9.71;100.00;100733.13;689275;28;1283;-66
2022/10/02 01:42:00;;;;;;;8.75;3.60;;;;;;;9.70;100.00;100731.38;689354;28;1199;-66
2022/10/02 01:42:20;;;;;;;9.63;3.80;;;;;;;9.73;100.00;100732.25;688938;28;1088;-66
2022/10/02 01:42:41;;;;;;;10.70;3.47;;;;;;;9.73;100.00;100729.66;688351;28;4416;-65
2022/10/02 01:43:07;;;;;;;11.23;3.57;;;;;;;9.73;100.00;100733.13;687772;28;1348;-65
2022/10/02 01:43:34;;;;;;;8.13;3.50;;;;;;;9.73;100.00;100730.50;689230;28;1452;-66
2022/10/02 01:44:00;;;;;;;11.23;3.80;;;;;;;9.73;100.00;100733.13;689183;28;1226;-65
2022/10/02 01:44:21;;;;;;;10.73;3.40;;;;;;;9.74;100.00;100728.78;688180;28;2627;-66
2022/10/02 01:44:43;;;;;;;10.27;3.45;;;;;;;9.74;100.00;100732.25;689474;28;1274;-65
2022/10/02 01:45:05;;;;;;;8.88;3.50;;;;;;;9.76;100.00;100729.63;689629;28;1480;-65
2022/10/02 01:45:57;;;;;;;9.88;3.33;;;;;;;9.76;100.00;100730.53;688779;28;1205;-66
2022/10/02 01:46:23;;;;;;;10.88;3.38;;;;;;;9.76;100.00;100729.63;689350;28;5042;-66
2022/10/02 01:47:29;;;;;;;8.75;3.25;;;;;;;9.73;100.00;100733.13;689416;28;1398;-66
2022/10/02 01:48:00;;;;;;;11.18;3.63;;;;;;;9.77;100.00;100729.63;679027;29;1213;-66
2022/10/02 01:48:41;;;;;;;9.40;3.58;;;;;;;9.77;100.00;100742.69;678383;29;2869;-65
2022/10/02 01:49:10;;;;;;;11.65;3.95;;;;;;;9.76;100.00;100738.38;689282;28;4785;-65
2022/10/02 01:49:39;;;;;;;9.88;3.65;;;;;;;9.74;100.00;100740.09;689852;28;1143;-66
2022/10/02 01:50:11;;;;;;;10.27;3.42;;;;;;;9.74;100.00;100742.69;688992;28;1285;-66
2022/10/02 01:50:52;;;;;;;10.85;3.60;;;;;;;9.78;100.00;100741.81;689427;28;1139;-66
2022/10/02 01:51:26;;;;;;;9.55;3.50;;;;;;;9.77;100.00;100737.47;688633;28;1084;-66
2022/10/02 01:52:00;;;;;;;12.02;3.92;;;;;;;9.78;100.00;100738.34;689228;28;4676;-65
2022/10/02 01:52:40;;;;;;;12.13;3.97;;;;;;;9.77;100.00;100742.69;689030;28;1036;-66
2022/10/02 01:53:19;;;;;;;9.98;3.65;;;;;;;9.78;100.00;100731.38;689950;28;1303;-66
2022/10/02 01:54:13;;;;;;;12.15;3.78;;;;;;;9.76;100.00;100734.84;690010;28;1278;-66
2022/10/02 01:54:56;;;;;;;11.50;3.78;;;;;;;9.76;100.00;100735.75;689494;28;2839;-65
2022/10/02 01:55:19;;;;;;;9.25;3.50;;;;;;;9.79;100.00;100738.34;687743;28;4966;-65
2022/10/02 01:56:23;;;;;;;10.02;3.67;;;;;;;9.78;100.00;100738.34;689115;28;1294;-65
2022/10/02 01:57:04;;;;;;;9.90;4.20;;;;;;;9.76;100.00;100735.75;673717;29;1383;-65
2022/10/02 01:57:43;;;;;;;11.63;4.10;;;;;;;9.75;100.00;100736.63;674891;29;1622;-66
2022/10/02 01:58:33;;;;;;;11.57;4.00;;;;;;;9.76;100.00;100734.84;689237;28;5147;-66
2022/10/02 01:59:10;;;;;;;11.63;3.88;;;;;;;9.78;100.00;100733.13;687942;28;1461;-65
2022/10/02 02:00:00;;;;;;;10.73;3.92;;;;;;;9.79;100.00;100740.97;688585;28;1152;-66
2022/10/02 02:00:24;;;;;;;11.18;3.72;;;;;;;9.79;100.00;100735.75;688809;28;2615;-66
2022/10/02 02:01:07;;;;;;;10.07;3.55;;;;;;;9.79;100.00;100734.84;688213;28;4397;-65
2022/10/02 02:02:03;;;;;;;13.40;3.97;;;;;;;9.79;100.00;100730.53;689494;28;1660;-65
2022/10/02 02:02:35;;;;;;;11.93;3.90;;;;;;;9.78;100.00;100731.38;687153;28;1216;-65
2022/10/02 02:03:29;;;;;;;11.55;3.65;;;;;;;9.78;100.00;100731.38;688441;28;1211;-66
2022/10/02 02:04:06;;;;;;;9.10;3.47;;;;;;;9.78;100.00;100738.34;683775;28;4585;-66
2022/10/02 02:04:41;;;;;;;9.07;3.40;;;;;;;9.77;100.00;100729.63;688443;28;1245;-66
2022/10/02 02:05:44;;;;;;;8.57;3.40;;;;;;;9.78;100.00;100735.75;688967;28;1222;-65
2022/10/02 02:06:18;;;;;;;10.30;3.50;;;;;;;9.79;100.00;100730.53;689112;28;1448;-65
2022/10/02 02:06:51;;;;;;;9.07;3.30;;;;;;;9.83;100.00;100728.75;688082;28;4355;-65
2022/10/02 02:07:34;;;;;;;11.52;3.70;;;;;;;9.82;100.00;100729.66;689136;28;1154;-65
2022/10/02 02:08:03;;;;;;;10.02;3.63;;;;;;;9.82;100.00;100729.66;688624;28;1111;-65
2022/10/02 02:08:41;;;;;;;11.23;3.63;;;;;;;9.82;100.00;100727.91;688795;28;1179;-65
2022/10/02 02:09:19;;;;;;;11.15;3.80;;;;;;;9.84;100.00;100723.56;688672;28;1152;-66
2022/10/02 02:10:21;;;;;;;10.75;3.55;;;;;;;9.84;100.00;100736.63;688141;28;4329;-65
2022/10/02 02:10:45;;;;;;;9.90;3.25;;;;;;;9.87;100.00;100740.94;686508;28;1272;-66
2022/10/02 02:11:13;;;;;;;10.63;3.35;;;;;;;9.86;100.00;100737.47;684754;28;1326;-65
2022/10/02 02:11:38;;;;;;;11.48;3.95;;;;;;;9.88;100.00;100738.34;684585;28;1066;-65
2022/10/02 02:12:11;;;;;;;13.45;4.13;;;;;;;9.90;100.00;100738.34;683289;28;1181;-66
2022/10/02 02:12:34;;;;;;;10.30;4.03;;;;;;;9.91;100.00;100741.81;685185;28;1140;-66
2022/10/02 02:13:06;;;;;;;10.13;3.60;;;;;;;9.89;100.00;100745.28;687706;28;4466;-66
2022/10/02 02:13:41;;;;;;;8.48;3.50;;;;;;;9.92;100.00;100746.19;682361;28;1472;-65
2022/10/02 02:14:14;;;;;;;12.13;3.70;;;;;;;9.93;100.00;100747.91;683576;28;1708;-65
2022/10/02 02:14:45;;;;;;;14.27;4.00;;;;;;;9.94;100.00;100739.19;682486;28;1093;-65
2022/10/02 02:15:13;;;;;;;12.00;3.90;;;;;;;9.95;100.00;100735.72;681718;28;1201;-66
2022/10/02 02:15:49;;;;;;;12.73;4.05;;;;;;;9.92;100.00;100740.97;683587;28;1117;-66
2022/10/02 02:16:15;;;;;;;8.90;3.80;;;;;;;9.93;100.00;100738.34;686359;28;4900;-65
2022/10/02 02:16:44;;;;;;;9.43;3.53;;;;;;;9.91;100.00;100736.59;688766;28;1421;-66
2022/10/02 02:17:13;;;;;;;10.25;3.72;;;;;;;9.91;100.00;100739.22;689621;28;1366;-65
2022/10/02 02:17:47;;;;;;;10.70;3.45;;;;;;;9.92;100.00;100740.97;689303;28;1100;-65
2022/10/02 02:18:19;;;;;;;11.40;3.85;;;;;;;9.93;100.00;100738.34;688593;28;1250;-65
2022/10/02 02:18:45;;;;;;;12.13;3.40;;;;;;;9.95;100.00;100741.81;688719;28;4349;-65
2022/10/02 02:19:23;;;;;;;14.27;3.95;;;;;;;10.01;100.00;100735.72;689758;28;1327;-66
2022/10/02 02:20:00;;;;;;;11.80;4.20;;;;;;;10.01;100.00;100730.47;689173;28;1148;-65
2022/10/02 02:20:33;;;;;;;11.55;3.78;;;;;;;9.99;100.00;100737.47;687966;28;1073;-65
2022/10/02 02:21:00;;;;;;;11.07;3.75;;;;;;;9.97;100.00;100740.09;688263;28;1135;-65
2022/10/02 02:21:28;;;;;;;10.95;3.70;;;;;;;9.97;100.00;100736.59;689629;28;1020;-65
2022/10/02 02:21:54;;;;;;;9.63;3.33;;;;;;;9.97;100.00;100726.13;689324;28;4729;-65
2022/10/02 02:22:30;;;;;;;12.85;3.60;;;;;;;9.99;100.00;100732.25;689740;28;1064;-66
2022/10/02 02:22:53;;;;;;;11.63;3.75;;;;;;;10.01;100.00;100730.47;689736;28;1071;-66
2022/10/02 02:23:18;;;;;;;12.32;3.90;;;;;;;10.01;100.00;100733.09;688367;28;1340;-66